sensor_id;sensor_type;location;lat;lon;timestamp;P1;durP1;ratioP1;P2;durP2;ratioP2
40745;SDS011;26454;51.164;4.488;2023-05-07T00:01:41;15.65;;;13.32;;
40745;SDS011;26454;51.164;4.488;2023-05-07T00:04:07;17.52;;;12.88;;
40745;SDS011;26454;51.164;4.488;2023-05-07T00:06:38;16.85;;;12.85;;
40745;SDS011;26454;51.164;4.488;2023-05-07T00:09:04;13.30;;;11.90;;
40745;SDS011;26454;51.164;4.488;2023-05-07T00:11:30;13.70;;;12.30;;
40745;SDS011;26454;51.164;4.488;2023-05-07T00:13:58;18.40;;;14.38;;
40745;SDS011;26454;51.164;4.488;2023-05-07T00:16:24;17.85;;;13.70;;
40745;SDS011;26454;51.164;4.488;2023-05-07T00:18:51;16.67;;;14.10;;
40745;SDS011;26454;51.164;4.488;2023-05-07T00:21:17;19.38;;;14.55;;
40745;SDS011;26454;51.164;4.488;2023-05-07T00:23:43;15.80;;;13.15;;
40745;SDS011;26454;51.164;4.488;2023-05-07T00:26:09;15.35;;;12.85;;
40745;SDS011;26454;51.164;4.488;2023-05-07T00:28:36;14.57;;;12.57;;
40745;SDS011;26454;51.164;4.488;2023-05-07T00:31:03;15.70;;;13.85;;
40745;SDS011;26454;51.164;4.488;2023-05-07T00:33:29;17.45;;;14.45;;
40745;SDS011;26454;51.164;4.488;2023-05-07T00:35:55;17.25;;;15.45;;
40745;SDS011;26454;51.164;4.488;2023-05-07T00:38:21;19.90;;;17.95;;
40745;SDS011;26454;51.164;4.488;2023-05-07T00:40:47;16.83;;;14.40;;
40745;SDS011;26454;51.164;4.488;2023-05-07T00:43:13;17.55;;;14.93;;
40745;SDS011;26454;51.164;4.488;2023-05-07T00:45:41;16.35;;;14.65;;
40745;SDS011;26454;51.164;4.488;2023-05-07T00:48:07;14.82;;;13.32;;
40745;SDS011;26454;51.164;4.488;2023-05-07T00:50:34;16.73;;;13.88;;
40745;SDS011;26454;51.164;4.488;2023-05-07T00:53:00;15.60;;;13.98;;
40745;SDS011;26454;51.164;4.488;2023-05-07T00:55:27;17.23;;;15.45;;
40745;SDS011;26454;51.164;4.488;2023-05-07T00:57:54;18.70;;;15.07;;
40745;SDS011;26454;51.164;4.488;2023-05-07T01:00:20;18.05;;;14.25;;
40745;SDS011;26454;51.164;4.488;2023-05-07T01:02:49;18.40;;;15.85;;
40745;SDS011;26454;51.164;4.488;2023-05-07T01:05:15;22.92;;;16.27;;
40745;SDS011;26454;51.164;4.488;2023-05-07T01:07:42;22.08;;;17.40;;
40745;SDS011;26454;51.164;4.488;2023-05-07T01:10:09;22.15;;;16.73;;
40745;SDS011;26454;51.164;4.488;2023-05-07T01:12:36;18.77;;;16.05;;
40745;SDS011;26454;51.164;4.488;2023-05-07T01:15:03;21.20;;;17.13;;
40745;SDS011;26454;51.164;4.488;2023-05-07T01:17:33;22.83;;;17.25;;
40745;SDS011;26454;51.164;4.488;2023-05-07T01:19:59;21.17;;;17.98;;
40745;SDS011;26454;51.164;4.488;2023-05-07T01:22:33;17.73;;;15.82;;
40745;SDS011;26454;51.164;4.488;2023-05-07T01:25:01;17.55;;;15.75;;
40745;SDS011;26454;51.164;4.488;2023-05-07T01:27:28;25.05;;;18.00;;
40745;SDS011;26454;51.164;4.488;2023-05-07T01:29:54;21.05;;;18.45;;
40745;SDS011;26454;51.164;4.488;2023-05-07T01:32:23;23.75;;;19.52;;
40745;SDS011;26454;51.164;4.488;2023-05-07T01:34:49;23.05;;;17.23;;
40745;SDS011;26454;51.164;4.488;2023-05-07T01:37:16;20.65;;;18.52;;
40745;SDS011;26454;51.164;4.488;2023-05-07T01:39:43;27.77;;;23.63;;
40745;SDS011;26454;51.164;4.488;2023-05-07T01:42:10;23.90;;;20.95;;
40745;SDS011;26454;51.164;4.488;2023-05-07T01:44:36;20.60;;;18.20;;
40745;SDS011;26454;51.164;4.488;2023-05-07T01:47:02;22.52;;;18.73;;
40745;SDS011;26454;51.164;4.488;2023-05-07T01:49:28;21.35;;;18.85;;
40745;SDS011;26454;51.164;4.488;2023-05-07T01:51:55;22.52;;;20.25;;
40745;SDS011;26454;51.164;4.488;2023-05-07T01:54:25;22.80;;;20.38;;
40745;SDS011;26454;51.164;4.488;2023-05-07T01:56:53;26.17;;;23.58;;
40745;SDS011;26454;51.164;4.488;2023-05-07T01:59:19;21.23;;;18.95;;
40745;SDS011;26454;51.164;4.488;2023-05-07T02:01:44;20.63;;;18.42;;
40745;SDS011;26454;51.164;4.488;2023-05-07T02:04:10;23.52;;;19.95;;
40745;SDS011;26454;51.164;4.488;2023-05-07T02:06:37;22.70;;;18.23;;
40745;SDS011;26454;51.164;4.488;2023-05-07T02:09:03;24.92;;;22.33;;
40745;SDS011;26454;51.164;4.488;2023-05-07T02:11:29;21.92;;;19.73;;
40745;SDS011;26454;51.164;4.488;2023-05-07T02:13:55;21.00;;;18.85;;
40745;SDS011;26454;51.164;4.488;2023-05-07T02:16:21;21.38;;;18.58;;
40745;SDS011;26454;51.164;4.488;2023-05-07T02:18:48;27.77;;;25.08;;
40745;SDS011;26454;51.164;4.488;2023-05-07T02:21:14;23.55;;;21.15;;
40745;SDS011;26454;51.164;4.488;2023-05-07T02:23:40;20.20;;;18.17;;
40745;SDS011;26454;51.164;4.488;2023-05-07T02:26:06;21.10;;;19.00;;
40745;SDS011;26454;51.164;4.488;2023-05-07T02:28:32;25.88;;;20.38;;
40745;SDS011;26454;51.164;4.488;2023-05-07T02:31:02;24.02;;;21.15;;
40745;SDS011;26454;51.164;4.488;2023-05-07T02:33:28;24.60;;;21.58;;
40745;SDS011;26454;51.164;4.488;2023-05-07T02:35:54;21.73;;;19.17;;
40745;SDS011;26454;51.164;4.488;2023-05-07T02:38:20;22.77;;;18.73;;
40745;SDS011;26454;51.164;4.488;2023-05-07T02:40:46;21.20;;;18.65;;
40745;SDS011;26454;51.164;4.488;2023-05-07T02:43:12;23.85;;;19.48;;
40745;SDS011;26454;51.164;4.488;2023-05-07T02:45:38;24.60;;;22.00;;
40745;SDS011;26454;51.164;4.488;2023-05-07T02:48:04;21.92;;;19.40;;
40745;SDS011;26454;51.164;4.488;2023-05-07T02:50:31;22.40;;;19.02;;
40745;SDS011;26454;51.164;4.488;2023-05-07T02:52:57;21.33;;;19.08;;
40745;SDS011;26454;51.164;4.488;2023-05-07T02:55:24;21.48;;;19.50;;
40745;SDS011;26454;51.164;4.488;2023-05-07T02:57:50;20.48;;;18.55;;
40745;SDS011;26454;51.164;4.488;2023-05-07T03:00:17;21.23;;;19.10;;
40745;SDS011;26454;51.164;4.488;2023-05-07T03:02:45;25.02;;;22.52;;
40745;SDS011;26454;51.164;4.488;2023-05-07T03:05:11;23.02;;;20.17;;
40745;SDS011;26454;51.164;4.488;2023-05-07T03:07:39;21.67;;;19.52;;
40745;SDS011;26454;51.164;4.488;2023-05-07T03:10:09;20.58;;;18.58;;
40745;SDS011;26454;51.164;4.488;2023-05-07T03:12:35;21.13;;;19.02;;
40745;SDS011;26454;51.164;4.488;2023-05-07T03:15:02;18.27;;;16.58;;
40745;SDS011;26454;51.164;4.488;2023-05-07T03:17:38;20.38;;;18.38;;
40745;SDS011;26454;51.164;4.488;2023-05-07T03:20:04;22.40;;;20.25;;
40745;SDS011;26454;51.164;4.488;2023-05-07T03:22:31;21.13;;;19.00;;
40745;SDS011;26454;51.164;4.488;2023-05-07T03:24:57;18.80;;;16.90;;
40745;SDS011;26454;51.164;4.488;2023-05-07T03:27:23;21.05;;;18.60;;
40745;SDS011;26454;51.164;4.488;2023-05-07T03:29:49;19.85;;;17.95;;
40745;SDS011;26454;51.164;4.488;2023-05-07T03:32:15;17.88;;;15.98;;
40745;SDS011;26454;51.164;4.488;2023-05-07T03:34:41;20.10;;;18.27;;
40745;SDS011;26454;51.164;4.488;2023-05-07T03:37:09;18.95;;;17.20;;
40745;SDS011;26454;51.164;4.488;2023-05-07T03:39:35;20.52;;;18.52;;
40745;SDS011;26454;51.164;4.488;2023-05-07T03:42:02;20.15;;;18.13;;
40745;SDS011;26454;51.164;4.488;2023-05-07T03:44:30;24.02;;;21.52;;
40745;SDS011;26454;51.164;4.488;2023-05-07T03:46:56;20.48;;;18.52;;
40745;SDS011;26454;51.164;4.488;2023-05-07T03:49:22;19.73;;;17.83;;
40745;SDS011;26454;51.164;4.488;2023-05-07T03:51:48;24.83;;;22.40;;
40745;SDS011;26454;51.164;4.488;2023-05-07T03:54:15;28.83;;;23.48;;
40745;SDS011;26454;51.164;4.488;2023-05-07T03:56:42;26.40;;;23.58;;
40745;SDS011;26454;51.164;4.488;2023-05-07T03:59:08;34.58;;;28.55;;
40745;SDS011;26454;51.164;4.488;2023-05-07T04:01:34;23.20;;;20.73;;
40745;SDS011;26454;51.164;4.488;2023-05-07T04:04:00;31.13;;;27.63;;
40745;SDS011;26454;51.164;4.488;2023-05-07T04:06:26;32.50;;;29.05;;
40745;SDS011;26454;51.164;4.488;2023-05-07T04:08:52;32.05;;;26.10;;
40745;SDS011;26454;51.164;4.488;2023-05-07T04:11:19;28.92;;;25.92;;
40745;SDS011;26454;51.164;4.488;2023-05-07T04:13:46;29.60;;;26.30;;
40745;SDS011;26454;51.164;4.488;2023-05-07T04:16:12;34.35;;;29.30;;
40745;SDS011;26454;51.164;4.488;2023-05-07T04:18:38;24.30;;;21.75;;
40745;SDS011;26454;51.164;4.488;2023-05-07T04:21:05;24.75;;;22.25;;
40745;SDS011;26454;51.164;4.488;2023-05-07T04:23:31;22.67;;;20.25;;
40745;SDS011;26454;51.164;4.488;2023-05-07T04:25:57;25.60;;;22.13;;
40745;SDS011;26454;51.164;4.488;2023-05-07T04:28:24;24.75;;;21.50;;
40745;SDS011;26454;51.164;4.488;2023-05-07T04:30:50;23.40;;;20.77;;
40745;SDS011;26454;51.164;4.488;2023-05-07T04:33:17;25.60;;;21.65;;
40745;SDS011;26454;51.164;4.488;2023-05-07T04:35:43;22.10;;;19.83;;
40745;SDS011;26454;51.164;4.488;2023-05-07T04:38:09;20.80;;;18.85;;
40745;SDS011;26454;51.164;4.488;2023-05-07T04:40:36;18.95;;;17.02;;
40745;SDS011;26454;51.164;4.488;2023-05-07T04:43:03;20.40;;;18.52;;
40745;SDS011;26454;51.164;4.488;2023-05-07T04:45:29;20.70;;;18.75;;
40745;SDS011;26454;51.164;4.488;2023-05-07T04:47:56;20.92;;;18.77;;
40745;SDS011;26454;51.164;4.488;2023-05-07T04:50:22;23.90;;;18.15;;
40745;SDS011;26454;51.164;4.488;2023-05-07T04:52:49;22.05;;;19.08;;
40745;SDS011;26454;51.164;4.488;2023-05-07T04:55:16;20.15;;;18.08;;
40745;SDS011;26454;51.164;4.488;2023-05-07T04:57:42;19.65;;;16.98;;
40745;SDS011;26454;51.164;4.488;2023-05-07T05:00:08;20.38;;;18.27;;
40745;SDS011;26454;51.164;4.488;2023-05-07T05:02:34;18.77;;;16.73;;
40745;SDS011;26454;51.164;4.488;2023-05-07T05:05:01;20.02;;;18.02;;
40745;SDS011;26454;51.164;4.488;2023-05-07T05:07:28;18.73;;;16.30;;
40745;SDS011;26454;51.164;4.488;2023-05-07T05:09:54;21.27;;;18.98;;
40745;SDS011;26454;51.164;4.488;2023-05-07T05:12:20;19.05;;;17.20;;
40745;SDS011;26454;51.164;4.488;2023-05-07T05:14:47;24.27;;;20.52;;
40745;SDS011;26454;51.164;4.488;2023-05-07T05:17:13;19.38;;;16.33;;
40745;SDS011;26454;51.164;4.488;2023-05-07T05:19:40;21.63;;;17.05;;
40745;SDS011;26454;51.164;4.488;2023-05-07T05:22:06;22.38;;;20.15;;
40745;SDS011;26454;51.164;4.488;2023-05-07T05:24:32;22.52;;;19.35;;
40745;SDS011;26454;51.164;4.488;2023-05-07T05:26:58;18.52;;;16.63;;
40745;SDS011;26454;51.164;4.488;2023-05-07T05:29:26;19.90;;;17.75;;
40745;SDS011;26454;51.164;4.488;2023-05-07T05:31:52;17.80;;;16.17;;
40745;SDS011;26454;51.164;4.488;2023-05-07T05:34:18;17.52;;;15.82;;
40745;SDS011;26454;51.164;4.488;2023-05-07T05:36:44;16.38;;;14.77;;
40745;SDS011;26454;51.164;4.488;2023-05-07T05:39:10;16.88;;;15.18;;
40745;SDS011;26454;51.164;4.488;2023-05-07T05:41:37;18.02;;;16.17;;
40745;SDS011;26454;51.164;4.488;2023-05-07T05:44:04;20.27;;;17.35;;
40745;SDS011;26454;51.164;4.488;2023-05-07T05:46:30;16.88;;;15.25;;
40745;SDS011;26454;51.164;4.488;2023-05-07T05:48:56;18.65;;;16.95;;
40745;SDS011;26454;51.164;4.488;2023-05-07T05:51:22;17.38;;;15.57;;
40745;SDS011;26454;51.164;4.488;2023-05-07T05:53:48;15.20;;;13.70;;
40745;SDS011;26454;51.164;4.488;2023-05-07T05:56:15;13.95;;;12.65;;
40745;SDS011;26454;51.164;4.488;2023-05-07T05:58:41;16.00;;;14.32;;
40745;SDS011;26454;51.164;4.488;2023-05-07T06:01:07;16.58;;;14.68;;
40745;SDS011;26454;51.164;4.488;2023-05-07T06:03:33;17.63;;;15.07;;
40745;SDS011;26454;51.164;4.488;2023-05-07T06:05:59;15.20;;;13.63;;
40745;SDS011;26454;51.164;4.488;2023-05-07T06:08:28;19.55;;;17.63;;
40745;SDS011;26454;51.164;4.488;2023-05-07T06:10:55;17.87;;;15.97;;
40745;SDS011;26454;51.164;4.488;2023-05-07T06:13:22;16.63;;;14.23;;
40745;SDS011;26454;51.164;4.488;2023-05-07T06:15:48;16.60;;;14.80;;
40745;SDS011;26454;51.164;4.488;2023-05-07T06:18:14;19.60;;;17.60;;
40745;SDS011;26454;51.164;4.488;2023-05-07T06:20:41;18.85;;;16.85;;
40745;SDS011;26454;51.164;4.488;2023-05-07T06:23:07;18.77;;;16.92;;
40745;SDS011;26454;51.164;4.488;2023-05-07T06:25:33;15.75;;;14.30;;
40745;SDS011;26454;51.164;4.488;2023-05-07T06:27:59;19.48;;;16.90;;
40745;SDS011;26454;51.164;4.488;2023-05-07T06:30:25;16.98;;;15.35;;
40745;SDS011;26454;51.164;4.488;2023-05-07T06:32:51;16.73;;;14.80;;
40745;SDS011;26454;51.164;4.488;2023-05-07T06:35:17;17.60;;;15.52;;
40745;SDS011;26454;51.164;4.488;2023-05-07T06:37:44;20.20;;;15.65;;
40745;SDS011;26454;51.164;4.488;2023-05-07T06:40:10;16.67;;;15.15;;
40745;SDS011;26454;51.164;4.488;2023-05-07T06:42:36;17.52;;;14.73;;
40745;SDS011;26454;51.164;4.488;2023-05-07T06:45:03;16.60;;;15.00;;
40745;SDS011;26454;51.164;4.488;2023-05-07T06:47:29;15.55;;;14.00;;
40745;SDS011;26454;51.164;4.488;2023-05-07T06:49:55;15.73;;;14.15;;
40745;SDS011;26454;51.164;4.488;2023-05-07T06:52:21;15.98;;;14.02;;
40745;SDS011;26454;51.164;4.488;2023-05-07T06:54:47;16.80;;;13.75;;
40745;SDS011;26454;51.164;4.488;2023-05-07T06:57:13;15.20;;;13.57;;
40745;SDS011;26454;51.164;4.488;2023-05-07T06:59:40;17.77;;;13.77;;
40745;SDS011;26454;51.164;4.488;2023-05-07T07:02:08;16.65;;;14.82;;
40745;SDS011;26454;51.164;4.488;2023-05-07T07:04:34;16.40;;;14.73;;
40745;SDS011;26454;51.164;4.488;2023-05-07T07:07:00;19.38;;;15.65;;
40745;SDS011;26454;51.164;4.488;2023-05-07T07:09:26;16.63;;;14.90;;
40745;SDS011;26454;51.164;4.488;2023-05-07T07:11:52;19.95;;;15.05;;
40745;SDS011;26454;51.164;4.488;2023-05-07T07:14:18;16.13;;;14.50;;
40745;SDS011;26454;51.164;4.488;2023-05-07T07:16:46;17.73;;;15.27;;
40745;SDS011;26454;51.164;4.488;2023-05-07T07:19:12;16.42;;;14.70;;
40745;SDS011;26454;51.164;4.488;2023-05-07T07:21:40;17.77;;;15.63;;
40745;SDS011;26454;51.164;4.488;2023-05-07T07:24:07;15.73;;;14.13;;
40745;SDS011;26454;51.164;4.488;2023-05-07T07:26:33;16.65;;;13.38;;
40745;SDS011;26454;51.164;4.488;2023-05-07T07:29:02;16.08;;;13.75;;
40745;SDS011;26454;51.164;4.488;2023-05-07T07:31:28;16.48;;;14.68;;
40745;SDS011;26454;51.164;4.488;2023-05-07T07:33:56;16.90;;;13.70;;
40745;SDS011;26454;51.164;4.488;2023-05-07T07:36:22;14.95;;;12.25;;
40745;SDS011;26454;51.164;4.488;2023-05-07T07:38:48;13.77;;;12.15;;
40745;SDS011;26454;51.164;4.488;2023-05-07T07:41:15;13.52;;;11.93;;
40745;SDS011;26454;51.164;4.488;2023-05-07T07:43:41;14.63;;;12.00;;
40745;SDS011;26454;51.164;4.488;2023-05-07T07:46:07;15.43;;;11.98;;
40745;SDS011;26454;51.164;4.488;2023-05-07T07:48:33;15.05;;;12.13;;
40745;SDS011;26454;51.164;4.488;2023-05-07T07:50:59;13.13;;;11.73;;
40745;SDS011;26454;51.164;4.488;2023-05-07T07:53:25;13.45;;;12.05;;
40745;SDS011;26454;51.164;4.488;2023-05-07T07:55:51;16.90;;;11.73;;
40745;SDS011;26454;51.164;4.488;2023-05-07T07:58:17;16.70;;;10.88;;
40745;SDS011;26454;51.164;4.488;2023-05-07T08:00:43;15.38;;;11.90;;
40745;SDS011;26454;51.164;4.488;2023-05-07T08:03:09;12.05;;;10.85;;
40745;SDS011;26454;51.164;4.488;2023-05-07T08:05:36;12.60;;;10.48;;
40745;SDS011;26454;51.164;4.488;2023-05-07T08:08:03;16.55;;;10.27;;
40745;SDS011;26454;51.164;4.488;2023-05-07T08:10:29;16.92;;;10.02;;
40745;SDS011;26454;51.164;4.488;2023-05-07T08:12:58;11.98;;;8.75;;
40745;SDS011;26454;51.164;4.488;2023-05-07T08:15:24;10.90;;;9.38;;
40745;SDS011;26454;51.164;4.488;2023-05-07T08:17:50;12.65;;;8.95;;
40745;SDS011;26454;51.164;4.488;2023-05-07T08:20:17;10.30;;;7.88;;
40745;SDS011;26454;51.164;4.488;2023-05-07T08:22:43;11.15;;;8.40;;
40745;SDS011;26454;51.164;4.488;2023-05-07T08:25:09;13.77;;;9.35;;
40745;SDS011;26454;51.164;4.488;2023-05-07T08:27:35;13.30;;;9.57;;
40745;SDS011;26454;51.164;4.488;2023-05-07T08:30:01;10.73;;;9.57;;
40745;SDS011;26454;51.164;4.488;2023-05-07T08:32:27;11.60;;;9.02;;
40745;SDS011;26454;51.164;4.488;2023-05-07T08:34:53;13.93;;;9.75;;
40745;SDS011;26454;51.164;4.488;2023-05-07T08:37:19;12.68;;;10.05;;
40745;SDS011;26454;51.164;4.488;2023-05-07T08:39:45;11.52;;;9.07;;
40745;SDS011;26454;51.164;4.488;2023-05-07T08:42:12;17.08;;;10.38;;
40745;SDS011;26454;51.164;4.488;2023-05-07T08:44:38;17.65;;;11.13;;
40745;SDS011;26454;51.164;4.488;2023-05-07T08:47:06;13.85;;;9.88;;
40745;SDS011;26454;51.164;4.488;2023-05-07T08:49:33;15.05;;;9.77;;
40745;SDS011;26454;51.164;4.488;2023-05-07T08:52:00;12.95;;;9.77;;
40745;SDS011;26454;51.164;4.488;2023-05-07T08:54:26;14.02;;;9.48;;
40745;SDS011;26454;51.164;4.488;2023-05-07T08:56:55;14.25;;;9.30;;
40745;SDS011;26454;51.164;4.488;2023-05-07T08:59:21;19.55;;;10.70;;
40745;SDS011;26454;51.164;4.488;2023-05-07T09:01:47;17.23;;;10.98;;
40745;SDS011;26454;51.164;4.488;2023-05-07T09:04:13;14.13;;;10.23;;
40745;SDS011;26454;51.164;4.488;2023-05-07T09:06:41;13.40;;;9.23;;
40745;SDS011;26454;51.164;4.488;2023-05-07T09:09:07;16.35;;;8.90;;
40745;SDS011;26454;51.164;4.488;2023-05-07T09:11:33;15.73;;;9.82;;
40745;SDS011;26454;51.164;4.488;2023-05-07T09:14:01;17.30;;;10.73;;
40745;SDS011;26454;51.164;4.488;2023-05-07T09:16:29;13.68;;;11.00;;
40745;SDS011;26454;51.164;4.488;2023-05-07T09:18:57;14.68;;;11.15;;
40745;SDS011;26454;51.164;4.488;2023-05-07T09:21:24;13.93;;;10.73;;
40745;SDS011;26454;51.164;4.488;2023-05-07T09:23:51;17.88;;;10.98;;
40745;SDS011;26454;51.164;4.488;2023-05-07T09:26:17;15.10;;;10.65;;
40745;SDS011;26454;51.164;4.488;2023-05-07T09:28:43;23.23;;;13.10;;
40745;SDS011;26454;51.164;4.488;2023-05-07T09:31:11;17.70;;;11.20;;
40745;SDS011;26454;51.164;4.488;2023-05-07T09:33:39;15.68;;;10.65;;
40745;SDS011;26454;51.164;4.488;2023-05-07T09:36:06;19.88;;;13.27;;
40745;SDS011;26454;51.164;4.488;2023-05-07T09:38:34;16.67;;;12.27;;
40745;SDS011;26454;51.164;4.488;2023-05-07T09:41:11;16.02;;;11.82;;
40745;SDS011;26454;51.164;4.488;2023-05-07T09:43:38;18.33;;;12.35;;
40745;SDS011;26454;51.164;4.488;2023-05-07T09:46:11;20.90;;;13.95;;
40745;SDS011;26454;51.164;4.488;2023-05-07T09:48:38;17.35;;;12.25;;
40745;SDS011;26454;51.164;4.488;2023-05-07T09:51:18;18.02;;;13.60;;
40745;SDS011;26454;51.164;4.488;2023-05-07T09:53:47;24.25;;;13.63;;
40745;SDS011;26454;51.164;4.488;2023-05-07T09:56:16;18.92;;;13.07;;
40745;SDS011;26454;51.164;4.488;2023-05-07T09:58:43;19.95;;;13.48;;
40745;SDS011;26454;51.164;4.488;2023-05-07T10:01:10;15.50;;;11.85;;
40745;SDS011;26454;51.164;4.488;2023-05-07T10:03:40;17.35;;;12.63;;
40745;SDS011;26454;51.164;4.488;2023-05-07T10:06:10;18.63;;;11.15;;
40745;SDS011;26454;51.164;4.488;2023-05-07T10:08:37;11.60;;;10.02;;
40745;SDS011;26454;51.164;4.488;2023-05-07T10:11:05;14.48;;;9.55;;
40745;SDS011;26454;51.164;4.488;2023-05-07T10:13:33;17.95;;;10.80;;
40745;SDS011;26454;51.164;4.488;2023-05-07T10:16:04;13.98;;;8.70;;
40745;SDS011;26454;51.164;4.488;2023-05-07T10:18:31;12.30;;;8.25;;
40745;SDS011;26454;51.164;4.488;2023-05-07T10:21:08;12.40;;;8.15;;
40745;SDS011;26454;51.164;4.488;2023-05-07T10:23:36;10.98;;;8.23;;
40745;SDS011;26454;51.164;4.488;2023-05-07T10:26:08;14.43;;;8.00;;
40745;SDS011;26454;51.164;4.488;2023-05-07T10:28:37;11.90;;;7.75;;
40745;SDS011;26454;51.164;4.488;2023-05-07T10:33:44;13.70;;;7.60;;
40745;SDS011;26454;51.164;4.488;2023-05-07T10:36:14;13.50;;;8.38;;
40745;SDS011;26454;51.164;4.488;2023-05-07T10:38:43;13.00;;;7.50;;
40745;SDS011;26454;51.164;4.488;2023-05-07T10:41:15;13.93;;;9.57;;
40745;SDS011;26454;51.164;4.488;2023-05-07T10:43:45;17.23;;;11.90;;
40745;SDS011;26454;51.164;4.488;2023-05-07T10:46:16;14.27;;;10.40;;
40745;SDS011;26454;51.164;4.488;2023-05-07T10:51:24;17.77;;;7.30;;
40745;SDS011;26454;51.164;4.488;2023-05-07T10:54:17;11.30;;;7.38;;
40745;SDS011;26454;51.164;4.488;2023-05-07T10:56:37;7.78;;;5.93;;
40745;SDS011;26454;51.164;4.488;2023-05-07T11:01:50;10.45;;;7.47;;
40745;SDS011;26454;51.164;4.488;2023-05-07T11:04:18;9.35;;;7.20;;
40745;SDS011;26454;51.164;4.488;2023-05-07T11:07:26;9.98;;;8.25;;
40745;SDS011;26454;51.164;4.488;2023-05-07T11:12:13;12.35;;;7.88;;
40745;SDS011;26454;51.164;4.488;2023-05-07T11:14:42;10.95;;;8.20;;
40745;SDS011;26454;51.164;4.488;2023-05-07T11:17:09;9.53;;;6.93;;
40745;SDS011;26454;51.164;4.488;2023-05-07T11:24:48;10.93;;;7.78;;
40745;SDS011;26454;51.164;4.488;2023-05-07T11:27:21;13.98;;;8.00;;
40745;SDS011;26454;51.164;4.488;2023-05-07T11:29:48;15.52;;;7.95;;
40745;SDS011;26454;51.164;4.488;2023-05-07T11:34:54;13.20;;;8.32;;
40745;SDS011;26454;51.164;4.488;2023-05-07T11:37:23;15.32;;;9.10;;
40745;SDS011;26454;51.164;4.488;2023-05-07T11:39:49;12.70;;;9.05;;
40745;SDS011;26454;51.164;4.488;2023-05-07T11:44:48;19.67;;;11.88;;
40745;SDS011;26454;51.164;4.488;2023-05-07T11:47:18;16.80;;;9.50;;
40745;SDS011;26454;51.164;4.488;2023-05-07T11:49:48;10.68;;;7.90;;
40745;SDS011;26454;51.164;4.488;2023-05-07T11:52:18;9.35;;;7.70;;
40745;SDS011;26454;51.164;4.488;2023-05-07T11:54:53;7.67;;;6.90;;
40745;SDS011;26454;51.164;4.488;2023-05-07T11:57:24;10.90;;;7.35;;
40745;SDS011;26454;51.164;4.488;2023-05-07T11:59:55;16.75;;;8.50;;
40745;SDS011;26454;51.164;4.488;2023-05-07T12:02:22;11.77;;;6.75;;
40745;SDS011;26454;51.164;4.488;2023-05-07T12:04:50;10.82;;;7.00;;
40745;SDS011;26454;51.164;4.488;2023-05-07T12:07:20;12.35;;;6.15;;
40745;SDS011;26454;51.164;4.488;2023-05-07T12:09:47;10.65;;;7.28;;
40745;SDS011;26454;51.164;4.488;2023-05-07T12:12:14;7.15;;;6.30;;
40745;SDS011;26454;51.164;4.488;2023-05-07T12:14:45;16.83;;;8.68;;
40745;SDS011;26454;51.164;4.488;2023-05-07T12:17:13;9.57;;;6.72;;
40745;SDS011;26454;51.164;4.488;2023-05-07T12:19:42;12.13;;;7.85;;
40745;SDS011;26454;51.164;4.488;2023-05-07T12:22:09;7.57;;;6.75;;
40745;SDS011;26454;51.164;4.488;2023-05-07T12:24:48;12.57;;;8.35;;
40745;SDS011;26454;51.164;4.488;2023-05-07T12:27:18;8.93;;;7.15;;
40745;SDS011;26454;51.164;4.488;2023-05-07T12:29:45;13.02;;;7.88;;
40745;SDS011;26454;51.164;4.488;2023-05-07T12:32:13;10.38;;;7.95;;
40745;SDS011;26454;51.164;4.488;2023-05-07T12:34:40;13.05;;;9.05;;
40745;SDS011;26454;51.164;4.488;2023-05-07T12:37:06;15.75;;;9.70;;
40745;SDS011;26454;51.164;4.488;2023-05-07T12:39:33;11.43;;;8.70;;
40745;SDS011;26454;51.164;4.488;2023-05-07T12:41:59;10.00;;;7.95;;
40745;SDS011;26454;51.164;4.488;2023-05-07T12:44:30;13.95;;;7.78;;
40745;SDS011;26454;51.164;4.488;2023-05-07T12:46:57;9.20;;;7.80;;
40745;SDS011;26454;51.164;4.488;2023-05-07T12:49:23;10.20;;;7.90;;
40745;SDS011;26454;51.164;4.488;2023-05-07T12:51:51;11.50;;;7.60;;
40745;SDS011;26454;51.164;4.488;2023-05-07T12:54:28;10.57;;;7.13;;
40745;SDS011;26454;51.164;4.488;2023-05-07T12:57:02;10.57;;;8.63;;
40745;SDS011;26454;51.164;4.488;2023-05-07T12:59:32;13.88;;;8.93;;
40745;SDS011;26454;51.164;4.488;2023-05-07T13:02:01;15.25;;;9.73;;
40745;SDS011;26454;51.164;4.488;2023-05-07T13:04:27;13.57;;;8.20;;
40745;SDS011;26454;51.164;4.488;2023-05-07T13:06:56;14.10;;;7.43;;
40745;SDS011;26454;51.164;4.488;2023-05-07T13:09:25;9.93;;;6.07;;
40745;SDS011;26454;51.164;4.488;2023-05-07T13:11:51;7.38;;;5.07;;
40745;SDS011;26454;51.164;4.488;2023-05-07T13:14:18;11.88;;;6.88;;
40745;SDS011;26454;51.164;4.488;2023-05-07T13:16:45;9.73;;;6.22;;
40745;SDS011;26454;51.164;4.488;2023-05-07T13:19:11;7.65;;;6.07;;
40745;SDS011;26454;51.164;4.488;2023-05-07T13:21:39;11.80;;;5.32;;
40745;SDS011;26454;51.164;4.488;2023-05-07T13:24:05;10.13;;;4.95;;
40745;SDS011;26454;51.164;4.488;2023-05-07T13:26:31;5.50;;;4.15;;
40745;SDS011;26454;51.164;4.488;2023-05-07T13:28:57;6.63;;;4.35;;
40745;SDS011;26454;51.164;4.488;2023-05-07T13:31:24;7.07;;;3.90;;
40745;SDS011;26454;51.164;4.488;2023-05-07T13:33:50;8.55;;;4.55;;
40745;SDS011;26454;51.164;4.488;2023-05-07T13:36:17;4.70;;;3.83;;
40745;SDS011;26454;51.164;4.488;2023-05-07T13:38:44;7.28;;;3.90;;
40745;SDS011;26454;51.164;4.488;2023-05-07T13:41:11;5.43;;;3.03;;
40745;SDS011;26454;51.164;4.488;2023-05-07T13:43:38;4.50;;;3.05;;
40745;SDS011;26454;51.164;4.488;2023-05-07T13:46:04;5.93;;;3.35;;
40745;SDS011;26454;51.164;4.488;2023-05-07T13:48:30;5.30;;;3.25;;
40745;SDS011;26454;51.164;4.488;2023-05-07T13:50:56;9.48;;;3.60;;
40745;SDS011;26454;51.164;4.488;2023-05-07T13:53:23;4.90;;;3.67;;
40745;SDS011;26454;51.164;4.488;2023-05-07T13:55:49;5.18;;;2.95;;
40745;SDS011;26454;51.164;4.488;2023-05-07T13:58:15;6.63;;;3.10;;
40745;SDS011;26454;51.164;4.488;2023-05-07T14:00:41;6.97;;;3.38;;
40745;SDS011;26454;51.164;4.488;2023-05-07T14:03:07;7.50;;;3.28;;
40745;SDS011;26454;51.164;4.488;2023-05-07T14:05:33;4.60;;;2.65;;
40745;SDS011;26454;51.164;4.488;2023-05-07T14:08:00;5.32;;;2.88;;
40745;SDS011;26454;51.164;4.488;2023-05-07T14:10:28;5.60;;;2.58;;
40745;SDS011;26454;51.164;4.488;2023-05-07T14:12:55;3.95;;;2.63;;
40745;SDS011;26454;51.164;4.488;2023-05-07T14:15:21;5.53;;;2.47;;
40745;SDS011;26454;51.164;4.488;2023-05-07T14:17:47;3.67;;;2.22;;
40745;SDS011;26454;51.164;4.488;2023-05-07T14:20:13;4.97;;;2.80;;
40745;SDS011;26454;51.164;4.488;2023-05-07T14:22:39;7.05;;;2.80;;
40745;SDS011;26454;51.164;4.488;2023-05-07T14:25:06;3.58;;;2.22;;
40745;SDS011;26454;51.164;4.488;2023-05-07T14:27:34;3.25;;;2.55;;
40745;SDS011;26454;51.164;4.488;2023-05-07T14:30:00;7.32;;;2.97;;
40745;SDS011;26454;51.164;4.488;2023-05-07T14:32:26;5.05;;;2.60;;
40745;SDS011;26454;51.164;4.488;2023-05-07T14:34:53;6.20;;;2.20;;
40745;SDS011;26454;51.164;4.488;2023-05-07T14:37:20;2.63;;;2.03;;
40745;SDS011;26454;51.164;4.488;2023-05-07T14:39:46;6.78;;;3.28;;
40745;SDS011;26454;51.164;4.488;2023-05-07T14:42:12;7.20;;;2.75;;
40745;SDS011;26454;51.164;4.488;2023-05-07T14:44:38;3.28;;;2.55;;
40745;SDS011;26454;51.164;4.488;2023-05-07T14:47:06;6.10;;;2.75;;
40745;SDS011;26454;51.164;4.488;2023-05-07T14:49:33;8.02;;;2.42;;